sensor_id;sensor_type;location;lat;lon;timestamp;temperature;humidity
19166;DHT22;9715;48.816;10.520;2022-07-23T00:00:34;24.30;99.90
19166;DHT22;9715;48.816;10.520;2022-07-23T00:03:05;24.30;99.90
19166;DHT22;9715;48.816;10.520;2022-07-23T00:05:33;24.30;99.90
19166;DHT22;9715;48.816;10.520;2022-07-23T00:08:04;24.40;99.90
19166;DHT22;9715;48.816;10.520;2022-07-23T00:10:36;24.40;99.90
19166;DHT22;9715;48.816;10.520;2022-07-23T00:13:04;24.40;99.90
19166;DHT22;9715;48.816;10.520;2022-07-23T00:15:34;24.40;99.90
19166;DHT22;9715;48.816;10.520;2022-07-23T00:18:02;24.40;99.90
19166;DHT22;9715;48.816;10.520;2022-07-23T00:20:30;24.40;99.90
19166;DHT22;9715;48.816;10.520;2022-07-23T00:22:58;24.30;99.90
19166;DHT22;9715;48.816;10.520;2022-07-23T00:25:27;24.30;99.90
19166;DHT22;9715;48.816;10.520;2022-07-23T00:27:57;24.30;99.90
19166;DHT22;9715;48.816;10.520;2022-07-23T00:30:25;24.40;99.90
19166;DHT22;9715;48.816;10.520;2022-07-23T00:32:56;24.30;99.90
19166;DHT22;9715;48.816;10.520;2022-07-23T00:35:26;24.30;99.90
19166;DHT22;9715;48.816;10.520;2022-07-23T00:37:55;24.30;99.90
19166;DHT22;9715;48.816;10.520;2022-07-23T00:40:24;24.30;99.90
19166;DHT22;9715;48.816;10.520;2022-07-23T00:42:53;24.30;99.90
19166;DHT22;9715;48.816;10.520;2022-07-23T00:45:21;24.40;99.90
19166;DHT22;9715;48.816;10.520;2022-07-23T00:47:49;24.40;99.90
19166;DHT22;9715;48.816;10.520;2022-07-23T00:50:18;24.40;99.90
19166;DHT22;9715;48.816;10.520;2022-07-23T00:52:47;24.50;99.90
19166;DHT22;9715;48.816;10.520;2022-07-23T00:55:15;24.50;99.90
19166;DHT22;9715;48.816;10.520;2022-07-23T00:57:43;24.40;99.90
19166;DHT22;9715;48.816;10.520;2022-07-23T01:00:13;24.30;99.90
19166;DHT22;9715;48.816;10.520;2022-07-23T01:02:41;24.20;99.90
19166;DHT22;9715;48.816;10.520;2022-07-23T01:05:10;24.10;99.90
19166;DHT22;9715;48.816;10.520;2022-07-23T01:07:39;24.10;99.90
19166;DHT22;9715;48.816;10.520;2022-07-23T01:10:08;24.10;99.90
19166;DHT22;9715;48.816;10.520;2022-07-23T01:12:50;24.10;99.90
19166;DHT22;9715;48.816;10.520;2022-07-23T01:15:18;24.10;99.90
19166;DHT22;9715;48.816;10.520;2022-07-23T01:17:46;24.10;99.90
19166;DHT22;9715;48.816;10.520;2022-07-23T01:20:14;24.10;99.90
19166;DHT22;9715;48.816;10.520;2022-07-23T01:22:44;24.10;99.90
19166;DHT22;9715;48.816;10.520;2022-07-23T01:25:13;24.10;99.90
19166;DHT22;9715;48.816;10.520;2022-07-23T01:27:41;24.10;99.90
19166;DHT22;9715;48.816;10.520;2022-07-23T01:30:09;24.10;99.90
19166;DHT22;9715;48.816;10.520;2022-07-23T01:32:38;24.10;99.90
19166;DHT22;9715;48.816;10.520;2022-07-23T01:35:07;24.10;99.90
19166;DHT22;9715;48.816;10.520;2022-07-23T01:37:35;24.10;99.90
19166;DHT22;9715;48.816;10.520;2022-07-23T01:40:06;24.10;99.90
19166;DHT22;9715;48.816;10.520;2022-07-23T01:42:35;24.10;99.90
19166;DHT22;9715;48.816;10.520;2022-07-23T01:45:04;24.10;99.90
19166;DHT22;9715;48.816;10.520;2022-07-23T01:47:32;24.10;99.90
19166;DHT22;9715;48.816;10.520;2022-07-23T01:50:01;24.10;99.90
19166;DHT22;9715;48.816;10.520;2022-07-23T01:52:29;24.00;99.90
19166;DHT22;9715;48.816;10.520;2022-07-23T01:54:57;24.00;99.90
19166;DHT22;9715;48.816;10.520;2022-07-23T01:57:26;24.00;99.90
19166;DHT22;9715;48.816;10.520;2022-07-23T01:59:54;24.00;99.90
19166;DHT22;9715;48.816;10.520;2022-07-23T02:02:22;23.90;99.90
19166;DHT22;9715;48.816;10.520;2022-07-23T02:04:51;23.90;99.90
19166;DHT22;9715;48.816;10.520;2022-07-23T02:07:19;23.80;99.90
19166;DHT22;9715;48.816;10.520;2022-07-23T02:09:47;23.70;99.90
19166;DHT22;9715;48.816;10.520;2022-07-23T02:12:15;23.60;99.90
19166;DHT22;9715;48.816;10.520;2022-07-23T02:14:45;23.60;99.90
19166;DHT22;9715;48.816;10.520;2022-07-23T02:17:13;23.50;99.90
19166;DHT22;9715;48.816;10.520;2022-07-23T02:19:41;23.50;99.90
19166;DHT22;9715;48.816;10.520;2022-07-23T02:22:09;23.40;99.90
19166;DHT22;9715;48.816;10.520;2022-07-23T02:24:37;23.40;99.90
19166;DHT22;9715;48.816;10.520;2022-07-23T02:27:05;23.40;99.90
19166;DHT22;9715;48.816;10.520;2022-07-23T02:29:33;23.30;99.90
19166;DHT22;9715;48.816;10.520;2022-07-23T02:32:02;23.20;99.90
19166;DHT22;9715;48.816;10.520;2022-07-23T02:34:33;23.10;99.90
19166;DHT22;9715;48.816;10.520;2022-07-23T02:37:01;23.10;99.90
19166;DHT22;9715;48.816;10.520;2022-07-23T02:39:29;23.10;99.90
19166;DHT22;9715;48.816;10.520;2022-07-23T02:41:57;23.10;99.90
19166;DHT22;9715;48.816;10.520;2022-07-23T02:44:25;23.10;99.90
19166;DHT22;9715;48.816;10.520;2022-07-23T02:46:53;23.10;99.90
19166;DHT22;9715;48.816;10.520;2022-07-23T02:49:23;23.10;99.90
19166;DHT22;9715;48.816;10.520;2022-07-23T02:51:51;23.00;99.90
19166;DHT22;9715;48.816;10.520;2022-07-23T02:54:19;23.00;99.90
19166;DHT22;9715;48.816;10.520;2022-07-23T02:56:47;23.00;99.90
19166;DHT22;9715;48.816;10.520;2022-07-23T02:59:17;23.00;99.90
19166;DHT22;9715;48.816;10.520;2022-07-23T03:01:45;22.90;99.90
19166;DHT22;9715;48.816;10.520;2022-07-23T03:04:13;22.90;99.90
19166;DHT22;9715;48.816;10.520;2022-07-23T03:06:43;22.90;99.90
19166;DHT22;9715;48.816;10.520;2022-07-23T03:09:11;22.90;99.90
19166;DHT22;9715;48.816;10.520;2022-07-23T03:11:39;22.80;99.90
19166;DHT22;9715;48.816;10.520;2022-07-23T03:14:07;22.80;99.90
19166;DHT22;9715;48.816;10.520;2022-07-23T03:16:35;22.80;99.90
19166;DHT22;9715;48.816;10.520;2022-07-23T03:19:03;22.70;99.90
19166;DHT22;9715;48.816;10.520;2022-07-23T03:21:32;22.70;99.90
19166;DHT22;9715;48.816;10.520;2022-07-23T03:24:02;22.70;99.90
19166;DHT22;9715;48.816;10.520;2022-07-23T03:26:30;22.60;99.90
19166;DHT22;9715;48.816;10.520;2022-07-23T03:28:58;22.60;99.90
19166;DHT22;9715;48.816;10.520;2022-07-23T03:31:28;22.60;99.90
19166;DHT22;9715;48.816;10.520;2022-07-23T03:33:57;22.60;99.90
19166;DHT22;9715;48.816;10.520;2022-07-23T03:36:25;22.50;99.90
19166;DHT22;9715;48.816;10.520;2022-07-23T03:38:53;22.50;99.90
19166;DHT22;9715;48.816;10.520;2022-07-23T03:41:23;22.50;99.90
19166;DHT22;9715;48.816;10.520;2022-07-23T03:43:51;22.50;99.90
19166;DHT22;9715;48.816;10.520;2022-07-23T03:46:19;22.50;99.90
19166;DHT22;9715;48.816;10.520;2022-07-23T03:48:47;22.50;99.90
19166;DHT22;9715;48.816;10.520;2022-07-23T03:51:19;22.40;99.90
19166;DHT22;9715;48.816;10.520;2022-07-23T03:53:47;22.30;99.90
19166;DHT22;9715;48.816;10.520;2022-07-23T03:56:15;22.30;99.90
19166;DHT22;9715;48.816;10.520;2022-07-23T03:58:45;22.10;99.90
19166;DHT22;9715;48.816;10.520;2022-07-23T04:01:14;21.90;99.90
19166;DHT22;9715;48.816;10.520;2022-07-23T04:03:42;21.80;99.90
19166;DHT22;9715;48.816;10.520;2022-07-23T04:06:11;21.60;99.90
19166;DHT22;9715;48.816;10.520;2022-07-23T04:08:39;21.50;99.90
19166;DHT22;9715;48.816;10.520;2022-07-23T04:11:07;21.50;99.90
19166;DHT22;9715;48.816;10.520;2022-07-23T04:13:35;21.40;99.90
19166;DHT22;9715;48.816;10.520;2022-07-23T04:16:05;21.30;99.90
19166;DHT22;9715;48.816;10.520;2022-07-23T04:18:33;21.20;99.90
19166;DHT22;9715;48.816;10.520;2022-07-23T04:21:01;21.20;99.90
19166;DHT22;9715;48.816;10.520;2022-07-23T04:23:29;21.10;99.90
19166;DHT22;9715;48.816;10.520;2022-07-23T04:25:57;21.20;99.90
19166;DHT22;9715;48.816;10.520;2022-07-23T04:28:25;21.10;99.90
19166;DHT22;9715;48.816;10.520;2022-07-23T04:30:56;21.20;99.90
19166;DHT22;9715;48.816;10.520;2022-07-23T04:33:25;21.20;99.90
19166;DHT22;9715;48.816;10.520;2022-07-23T04:35:53;21.20;99.90
19166;DHT22;9715;48.816;10.520;2022-07-23T04:38:21;21.20;99.90
19166;DHT22;9715;48.816;10.520;2022-07-23T04:40:49;21.30;99.90
19166;DHT22;9715;48.816;10.520;2022-07-23T04:43:18;21.30;99.90
19166;DHT22;9715;48.816;10.520;2022-07-23T04:45:46;21.30;99.90
19166;DHT22;9715;48.816;10.520;2022-07-23T04:48:14;21.40;99.90
19166;DHT22;9715;48.816;10.520;2022-07-23T04:50:44;21.40;99.90
19166;DHT22;9715;48.816;10.520;2022-07-23T04:53:12;21.40;99.90
19166;DHT22;9715;48.816;10.520;2022-07-23T04:55:40;21.50;99.90
19166;DHT22;9715;48.816;10.520;2022-07-23T04:58:08;21.50;99.90
19166;DHT22;9715;48.816;10.520;2022-07-23T05:00:36;21.50;99.90
19166;DHT22;9715;48.816;10.520;2022-07-23T05:03:04;21.50;99.90
19166;DHT22;9715;48.816;10.520;2022-07-23T05:05:32;21.50;99.90
19166;DHT22;9715;48.816;10.520;2022-07-23T05:08:02;21.50;99.90
19166;DHT22;9715;48.816;10.520;2022-07-23T05:10:30;21.60;99.90
19166;DHT22;9715;48.816;10.520;2022-07-23T05:12:59;21.60;99.90
19166;DHT22;9715;48.816;10.520;2022-07-23T05:15:27;21.70;99.90
19166;DHT22;9715;48.816;10.520;2022-07-23T05:17:55;21.80;99.90
19166;DHT22;9715;48.816;10.520;2022-07-23T05:20:23;21.90;99.90
19166;DHT22;9715;48.816;10.520;2022-07-23T05:22:51;21.90;99.90
19166;DHT22;9715;48.816;10.520;2022-07-23T05:25:20;21.90;99.90
19166;DHT22;9715;48.816;10.520;2022-07-23T05:27:48;22.00;99.90
19166;DHT22;9715;48.816;10.520;2022-07-23T05:30:17;22.10;99.90
19166;DHT22;9715;48.816;10.520;2022-07-23T05:32:45;22.20;99.90
19166;DHT22;9715;48.816;10.520;2022-07-23T05:35:13;22.20;99.90
19166;DHT22;9715;48.816;10.520;2022-07-23T05:37:41;22.30;99.90
19166;DHT22;9715;48.816;10.520;2022-07-23T05:40:10;22.40;99.90
19166;DHT22;9715;48.816;10.520;2022-07-23T05:42:40;22.40;99.90
19166;DHT22;9715;48.816;10.520;2022-07-23T05:45:10;22.50;99.90
19166;DHT22;9715;48.816;10.520;2022-07-23T05:47:42;22.60;99.90
19166;DHT22;9715;48.816;10.520;2022-07-23T05:50:11;22.60;99.90
19166;DHT22;9715;48.816;10.520;2022-07-23T05:52:40;22.60;99.90
19166;DHT22;9715;48.816;10.520;2022-07-23T05:55:09;22.70;99.90
19166;DHT22;9715;48.816;10.520;2022-07-23T05:57:40;22.60;99.90
19166;DHT22;9715;48.816;10.520;2022-07-23T06:00:10;22.60;99.90
19166;DHT22;9715;48.816;10.520;2022-07-23T06:02:38;22.60;99.90
19166;DHT22;9715;48.816;10.520;2022-07-23T06:05:07;22.60;99.90
19166;DHT22;9715;48.816;10.520;2022-07-23T06:07:36;22.70;99.90
19166;DHT22;9715;48.816;10.520;2022-07-23T06:10:04;22.70;99.90
19166;DHT22;9715;48.816;10.520;2022-07-23T06:12:32;22.70;99.90
19166;DHT22;9715;48.816;10.520;2022-07-23T06:15:03;22.80;99.90
19166;DHT22;9715;48.816;10.520;2022-07-23T06:17:37;22.80;99.90
19166;DHT22;9715;48.816;10.520;2022-07-23T06:20:08;22.90;99.90
19166;DHT22;9715;48.816;10.520;2022-07-23T06:22:36;22.90;99.90
19166;DHT22;9715;48.816;10.520;2022-07-23T06:25:06;22.90;99.90
19166;DHT22;9715;48.816;10.520;2022-07-23T06:27:45;23.00;99.90
19166;DHT22;9715;48.816;10.520;2022-07-23T06:30:15;23.10;99.90
19166;DHT22;9715;48.816;10.520;2022-07-23T06:32:44;23.10;99.90
19166;DHT22;9715;48.816;10.520;2022-07-23T06:35:12;23.20;99.90
19166;DHT22;9715;48.816;10.520;2022-07-23T06:37:40;23.20;99.90
19166;DHT22;9715;48.816;10.520;2022-07-23T06:40:09;23.30;99.90
19166;DHT22;9715;48.816;10.520;2022-07-23T06:42:37;23.40;99.90
19166;DHT22;9715;48.816;10.520;2022-07-23T06:45:07;23.40;99.90
19166;DHT22;9715;48.816;10.520;2022-07-23T06:47:36;23.50;99.90
19166;DHT22;9715;48.816;10.520;2022-07-23T06:50:06;23.60;99.90
19166;DHT22;9715;48.816;10.520;2022-07-23T06:52:34;23.60;99.90
19166;DHT22;9715;48.816;10.520;2022-07-23T06:55:08;23.60;99.90
19166;DHT22;9715;48.816;10.520;2022-07-23T06:57:36;23.70;99.90
19166;DHT22;9715;48.816;10.520;2022-07-23T07:00:05;23.80;99.90
19166;DHT22;9715;48.816;10.520;2022-07-23T07:02:35;23.80;99.90
19166;DHT22;9715;48.816;10.520;2022-07-23T07:05:04;23.80;99.90
19166;DHT22;9715;48.816;10.520;2022-07-23T07:07:32;23.90;99.90
19166;DHT22;9715;48.816;10.520;2022-07-23T07:10:00;23.90;99.90
19166;DHT22;9715;48.816;10.520;2022-07-23T07:12:28;24.00;99.90
19166;DHT22;9715;48.816;10.520;2022-07-23T07:14:56;24.10;99.90
19166;DHT22;9715;48.816;10.520;2022-07-23T07:17:24;24.20;99.90
19166;DHT22;9715;48.816;10.520;2022-07-23T07:19:54;24.20;99.90
19166;DHT22;9715;48.816;10.520;2022-07-23T07:22:22;24.30;99.90
19166;DHT22;9715;48.816;10.520;2022-07-23T07:24:50;24.30;99.90
19166;DHT22;9715;48.816;10.520;2022-07-23T07:27:18;24.30;99.90
19166;DHT22;9715;48.816;10.520;2022-07-23T07:29:46;24.40;99.90
19166;DHT22;9715;48.816;10.520;2022-07-23T07:32:14;24.50;99.90
19166;DHT22;9715;48.816;10.520;2022-07-23T07:35:04;24.50;99.90
19166;DHT22;9715;48.816;10.520;2022-07-23T07:37:33;24.50;99.90
19166;DHT22;9715;48.816;10.520;2022-07-23T07:40:01;24.60;99.90
19166;DHT22;9715;48.816;10.520;2022-07-23T07:42:29;24.60;99.90
19166;DHT22;9715;48.816;10.520;2022-07-23T07:44:58;24.60;99.90
19166;DHT22;9715;48.816;10.520;2022-07-23T07:47:26;24.70;99.90
19166;DHT22;9715;48.816;10.520;2022-07-23T07:49:54;24.80;99.90
19166;DHT22;9715;48.816;10.520;2022-07-23T07:52:24;24.90;99.90
19166;DHT22;9715;48.816;10.520;2022-07-23T07:54:52;24.90;99.90
19166;DHT22;9715;48.816;10.520;2022-07-23T07:57:20;25.00;99.90
19166;DHT22;9715;48.816;10.520;2022-07-23T07:59:48;25.10;99.90
19166;DHT22;9715;48.816;10.520;2022-07-23T08:02:22;25.20;99.90
19166;DHT22;9715;48.816;10.520;2022-07-23T08:04:50;25.40;99.90
19166;DHT22;9715;48.816;10.520;2022-07-23T08:07:19;25.40;99.90
19166;DHT22;9715;48.816;10.520;2022-07-23T08:09:48;25.50;99.90
19166;DHT22;9715;48.816;10.520;2022-07-23T08:12:16;25.50;99.90
19166;DHT22;9715;48.816;10.520;2022-07-23T08:14:44;25.40;99.90
19166;DHT22;9715;48.816;10.520;2022-07-23T08:17:12;25.40;99.90
19166;DHT22;9715;48.816;10.520;2022-07-23T08:19:41;25.30;99.90
19166;DHT22;9715;48.816;10.520;2022-07-23T08:22:09;25.20;99.90
19166;DHT22;9715;48.816;10.520;2022-07-23T08:24:37;25.30;99.90
19166;DHT22;9715;48.816;10.520;2022-07-23T08:27:06;25.40;99.90
19166;DHT22;9715;48.816;10.520;2022-07-23T08:29:34;25.50;99.90
19166;DHT22;9715;48.816;10.520;2022-07-23T08:32:03;25.60;99.90
19166;DHT22;9715;48.816;10.520;2022-07-23T08:34:51;25.60;99.90
19166;DHT22;9715;48.816;10.520;2022-07-23T08:37:19;25.70;99.90
19166;DHT22;9715;48.816;10.520;2022-07-23T08:39:47;25.70;99.90
19166;DHT22;9715;48.816;10.520;2022-07-23T08:42:18;25.70;99.90
19166;DHT22;9715;48.816;10.520;2022-07-23T08:44:46;25.90;99.90
19166;DHT22;9715;48.816;10.520;2022-07-23T08:47:14;25.90;99.90
19166;DHT22;9715;48.816;10.520;2022-07-23T08:49:44;26.00;99.90
19166;DHT22;9715;48.816;10.520;2022-07-23T08:52:14;26.20;99.90
19166;DHT22;9715;48.816;10.520;2022-07-23T08:54:43;26.30;99.90
19166;DHT22;9715;48.816;10.520;2022-07-23T08:57:11;26.30;99.90
19166;DHT22;9715;48.816;10.520;2022-07-23T08:59:41;26.30;99.90
19166;DHT22;9715;48.816;10.520;2022-07-23T09:02:09;26.40;99.90
19166;DHT22;9715;48.816;10.520;2022-07-23T09:04:37;26.40;99.90
19166;DHT22;9715;48.816;10.520;2022-07-23T09:07:05;26.40;99.90
19166;DHT22;9715;48.816;10.520;2022-07-23T09:09:33;26.30;99.90
19166;DHT22;9715;48.816;10.520;2022-07-23T09:12:03;26.30;99.90
19166;DHT22;9715;48.816;10.520;2022-07-23T09:14:39;26.30;99.90
19166;DHT22;9715;48.816;10.520;2022-07-23T09:17:13;26.30;99.90
19166;DHT22;9715;48.816;10.520;2022-07-23T09:19:42;26.20;99.90
19166;DHT22;9715;48.816;10.520;2022-07-23T09:22:17;26.10;99.90
19166;DHT22;9715;48.816;10.520;2022-07-23T09:25:03;26.10;99.90
19166;DHT22;9715;48.816;10.520;2022-07-23T09:27:50;26.10;99.90
19166;DHT22;9715;48.816;10.520;2022-07-23T09:30:22;26.00;99.90
19166;DHT22;9715;48.816;10.520;2022-07-23T09:33:08;26.00;99.90
19166;DHT22;9715;48.816;10.520;2022-07-23T09:35:48;26.00;99.90
19166;DHT22;9715;48.816;10.520;2022-07-23T09:38:17;26.00;99.90
19166;DHT22;9715;48.816;10.520;2022-07-23T09:40:46;26.00;99.90
19166;DHT22;9715;48.816;10.520;2022-07-23T09:43:26;26.10;99.90
19166;DHT22;9715;48.816;10.520;2022-07-23T09:46:20;26.10;99.90
19166;DHT22;9715;48.816;10.520;2022-07-23T09:48:50;26.20;99.90
19166;DHT22;9715;48.816;10.520;2022-07-23T09:51:19;26.20;99.90
19166;DHT22;9715;48.816;10.520;2022-07-23T09:53:52;26.20;99.90
19166;DHT22;9715;48.816;10.520;2022-07-23T09:56:20;26.20;99.90
19166;DHT22;9715;48.816;10.520;2022-07-23T09:58:53;26.30;99.90
19166;DHT22;9715;48.816;10.520;2022-07-23T10:01:31;26.30;99.90
19166;DHT22;9715;48.816;10.520;2022-07-23T10:04:01;26.20;99.90
19166;DHT22;9715;48.816;10.520;2022-07-23T10:06:31;26.20;99.90
19166;DHT22;9715;48.816;10.520;2022-07-23T10:09:00;26.30;99.90
19166;DHT22;9715;48.816;10.520;2022-07-23T10:11:30;26.20;99.90
19166;DHT22;9715;48.816;10.520;2022-07-23T10:13:59;26.20;99.90
19166;DHT22;9715;48.816;10.520;2022-07-23T10:16:30;26.10;99.90
19166;DHT22;9715;48.816;10.520;2022-07-23T10:18:58;26.30;99.90
19166;DHT22;9715;48.816;10.520;2022-07-23T10:21:36;26.30;99.90
19166;DHT22;9715;48.816;10.520;2022-07-23T10:24:12;26.40;99.90
19166;DHT22;9715;48.816;10.520;2022-07-23T10:26:51;26.60;99.90
19166;DHT22;9715;48.816;10.520;2022-07-23T10:29:28;26.60;99.90
19166;DHT22;9715;48.816;10.520;2022-07-23T10:32:00;26.70;99.90
19166;DHT22;9715;48.816;10.520;2022-07-23T10:34:39;26.80;99.90
19166;DHT22;9715;48.816;10.520;2022-07-23T10:37:16;26.80;99.90
19166;DHT22;9715;48.816;10.520;2022-07-23T10:39:48;27.00;99.90
19166;DHT22;9715;48.816;10.520;2022-07-23T10:42:36;27.20;99.90
19166;DHT22;9715;48.816;10.520;2022-07-23T10:45:23;27.40;99.90
19166;DHT22;9715;48.816;10.520;2022-07-23T10:47:52;27.50;99.90
19166;DHT22;9715;48.816;10.520;2022-07-23T10:50:23;27.50;99.90
19166;DHT22;9715;48.816;10.520;2022-07-23T10:53:17;27.50;99.90
19166;DHT22;9715;48.816;10.520;2022-07-23T10:55:47;27.50;99.90
19166;DHT22;9715;48.816;10.520;2022-07-23T10:58:21;27.50;99.90
19166;DHT22;9715;48.816;10.520;2022-07-23T11:00:50;27.60;99.90
19166;DHT22;9715;48.816;10.520;2022-07-23T11:03:30;27.60;99.90
19166;DHT22;9715;48.816;10.520;2022-07-23T11:05:59;27.60;99.90
19166;DHT22;9715;48.816;10.520;2022-07-23T11:08:28;27.60;99.90
19166;DHT22;9715;48.816;10.520;2022-07-23T11:11:08;27.60;99.90
19166;DHT22;9715;48.816;10.520;2022-07-23T11:13:45;27.60;99.90
19166;DHT22;9715;48.816;10.520;2022-07-23T11:16:16;27.60;99.90
19166;DHT22;9715;48.816;10.520;2022-07-23T11:18:59;27.60;99.90
19166;DHT22;9715;48.816;10.520;2022-07-23T11:21:50;27.60;99.90
19166;DHT22;9715;48.816;10.520;2022-07-23T11:24:25;27.50;99.90
19166;DHT22;9715;48.816;10.520;2022-07-23T11:27:02;27.70;99.90
19166;DHT22;9715;48.816;10.520;2022-07-23T11:29:48;27.80;99.90
19166;DHT22;9715;48.816;10.520;2022-07-23T11:32:31;27.80;99.90
19166;DHT22;9715;48.816;10.520;2022-07-23T11:35:00;27.90;99.90
19166;DHT22;9715;48.816;10.520;2022-07-23T11:37:33;28.00;99.90
19166;DHT22;9715;48.816;10.520;2022-07-23T11:40:06;28.20;99.90
19166;DHT22;9715;48.816;10.520;2022-07-23T11:42:37;28.40;99.90
19166;DHT22;9715;48.816;10.520;2022-07-23T11:45:07;28.40;99.90
19166;DHT22;9715;48.816;10.520;2022-07-23T11:47:35;28.40;99.90
19166;DHT22;9715;48.816;10.520;2022-07-23T11:50:05;28.50;99.90
19166;DHT22;9715;48.816;10.520;2022-07-23T11:52:34;28.40;99.90
19166;DHT22;9715;48.816;10.520;2022-07-23T11:55:05;28.30;99.90
19166;DHT22;9715;48.816;10.520;2022-07-23T11:57:35;28.40;99.90
19166;DHT22;9715;48.816;10.520;2022-07-23T12:00:06;28.50;99.90
19166;DHT22;9715;48.816;10.520;2022-07-23T12:02:36;28.80;99.90
19166;DHT22;9715;48.816;10.520;2022-07-23T12:05:05;29.00;99.90
19166;DHT22;9715;48.816;10.520;2022-07-23T12:07:37;29.10;99.90
19166;DHT22;9715;48.816;10.520;2022-07-23T12:10:12;29.20;99.90
19166;DHT22;9715;48.816;10.520;2022-07-23T12:12:42;29.30;99.40
19166;DHT22;9715;48.816;10.520;2022-07-23T12:15:11;29.50;98.90
19166;DHT22;9715;48.816;10.520;2022-07-23T12:17:42;29.60;97.80
19166;DHT22;9715;48.816;10.520;2022-07-23T12:20:18;29.60;98.50
19166;DHT22;9715;48.816;10.520;2022-07-23T12:22:49;29.60;98.40
19166;DHT22;9715;48.816;10.520;2022-07-23T12:25:21;29.40;97.90
19166;DHT22;9715;48.816;10.520;2022-07-23T12:28:00;29.20;96.30
19166;DHT22;9715;48.816;10.520;2022-07-23T12:30:31;29.00;97.50
19166;DHT22;9715;48.816;10.520;2022-07-23T12:33:01;28.80;97.90
19166;DHT22;9715;48.816;10.520;2022-07-23T12:35:36;28.80;98.50
19166;DHT22;9715;48.816;10.520;2022-07-23T12:38:06;28.80;97.80
19166;DHT22;9715;48.816;10.520;2022-07-23T12:40:41;28.70;97.30
19166;DHT22;9715;48.816;10.520;2022-07-23T12:43:12;28.50;97.60
19166;DHT22;9715;48.816;10.520;2022-07-23T12:45:47;28.40;98.10
19166;DHT22;9715;48.816;10.520;2022-07-23T12:48:18;28.30;98.50
19166;DHT22;9715;48.816;10.520;2022-07-23T12:50:58;28.20;98.10
19166;DHT22;9715;48.816;10.520;2022-07-23T12:53:28;28.10;98.50
19166;DHT22;9715;48.816;10.520;2022-07-23T12:56:04;28.00;98.30
19166;DHT22;9715;48.816;10.520;2022-07-23T12:58:44;28.00;98.90
19166;DHT22;9715;48.816;10.520;2022-07-23T13:01:29;27.90;98.90
19166;DHT22;9715;48.816;10.520;2022-07-23T13:04:02;28.00;99.20
19166;DHT22;9715;48.816;10.520;2022-07-23T13:06:40;28.10;98.90
19166;DHT22;9715;48.816;10.520;2022-07-23T13:09:12;28.30;99.10
19166;DHT22;9715;48.816;10.520;2022-07-23T13:11:43;28.40;98.00
19166;DHT22;9715;48.816;10.520;2022-07-23T13:14:14;28.50;98.10
19166;DHT22;9715;48.816;10.520;2022-07-23T13:16:43;28.80;97.50
19166;DHT22;9715;48.816;10.520;2022-07-23T13:19:11;29.10;96.70
19166;DHT22;9715;48.816;10.520;2022-07-23T13:21:41;29.20;95.90
19166;DHT22;9715;48.816;10.520;2022-07-23T13:24:11;29.40;96.20
19166;DHT22;9715;48.816;10.520;2022-07-23T13:26:41;29.70;96.40
19166;DHT22;9715;48.816;10.520;2022-07-23T13:29:09;30.10;94.50
19166;DHT22;9715;48.816;10.520;2022-07-23T13:31:38;30.10;94.10
19166;DHT22;9715;48.816;10.520;2022-07-23T13:34:07;30.30;93.90
19166;DHT22;9715;48.816;10.520;2022-07-23T13:36:35;30.60;92.70
19166;DHT22;9715;48.816;10.520;2022-07-23T13:39:04;30.50;93.30
19166;DHT22;9715;48.816;10.520;2022-07-23T13:41:36;30.30;93.50
19166;DHT22;9715;48.816;10.520;2022-07-23T13:44:05;30.00;93.90
19166;DHT22;9715;48.816;10.520;2022-07-23T13:46:33;29.70;94.30
19166;DHT22;9715;48.816;10.520;2022-07-23T13:49:02;29.30;95.00
19166;DHT22;9715;48.816;10.520;2022-07-23T13:51:35;29.00;95.00
19166;DHT22;9715;48.816;10.520;2022-07-23T13:54:04;29.00;94.80
19166;DHT22;9715;48.816;10.520;2022-07-23T13:56:35;29.20;94.80
19166;DHT22;9715;48.816;10.520;2022-07-23T13:59:04;29.80;94.80
19166;DHT22;9715;48.816;10.520;2022-07-23T14:01:33;30.30;93.60
19166;DHT22;9715;48.816;10.520;2022-07-23T14:04:21;30.60;92.30
19166;DHT22;9715;48.816;10.520;2022-07-23T14:06:49;30.80;91.90
19166;DHT22;9715;48.816;10.520;2022-07-23T14:09:20;30.90;92.40
19166;DHT22;9715;48.816;10.520;2022-07-23T14:11:51;30.60;92.20
19166;DHT22;9715;48.816;10.520;2022-07-23T14:14:21;30.20;93.00
19166;DHT22;9715;48.816;10.520;2022-07-23T14:16:49;29.90;92.90
19166;DHT22;9715;48.816;10.520;2022-07-23T14:19:17;30.10;93.10
19166;DHT22;9715;48.816;10.520;2022-07-23T14:21:45;30.20;92.10
19166;DHT22;9715;48.816;10.520;2022-07-23T14:24:15;30.20;92.60
19166;DHT22;9715;48.816;10.520;2022-07-23T14:26:44;30.30;92.40
19166;DHT22;9715;48.816;10.520;2022-07-23T14:29:13;30.40;92.20
19166;DHT22;9715;48.816;10.520;2022-07-23T14:31:43;30.50;91.70
19166;DHT22;9715;48.816;10.520;2022-07-23T14:34:13;30.60;91.00
19166;DHT22;9715;48.816;10.520;2022-07-23T14:36:41;30.70;90.50
19166;DHT22;9715;48.816;10.520;2022-07-23T14:39:09;30.70;90.10
19166;DHT22;9715;48.816;10.520;2022-07-23T14:41:38;30.80;89.80
19166;DHT22;9715;48.816;10.520;2022-07-23T14:44:07;30.90;89.60
19166;DHT22;9715;48.816;10.520;2022-07-23T14:46:36;31.00;89.60
19166;DHT22;9715;48.816;10.520;2022-07-23T14:49:06;30.90;90.00
19166;DHT22;9715;48.816;10.520;2022-07-23T14:51:35;30.80;91.10
19166;DHT22;9715;48.816;10.520;2022-07-23T14:54:04;30.70;90.90
19166;DHT22;9715;48.816;10.520;2022-07-23T14:56:32;30.50;90.40
19166;DHT22;9715;48.816;10.520;2022-07-23T14:59:03;30.40;91.50
19166;DHT22;9715;48.816;10.520;2022-07-23T15:01:32;30.60;90.80
19166;DHT22;9715;48.816;10.520;2022-07-23T15:04:01;30.90;90.80
19166;DHT22;9715;48.816;10.520;2022-07-23T15:06:50;31.20;89.60
19166;DHT22;9715;48.816;10.520;2022-07-23T15:09:18;31.40;87.30
19166;DHT22;9715;48.816;10.520;2022-07-23T15:11:47;31.70;87.50
19166;DHT22;9715;48.816;10.520;2022-07-23T15:14:16;31.90;86.30
19166;DHT22;9715;48.816;10.520;2022-07-23T15:16:56;31.70;87.40
19166;DHT22;9715;48.816;10.520;2022-07-23T15:19:25;31.50;87.40
19166;DHT22;9715;48.816;10.520;2022-07-23T15:21:58;31.30;88.40
19166;DHT22;9715;48.816;10.520;2022-07-23T15:24:28;31.40;88.60
19166;DHT22;9715;48.816;10.520;2022-07-23T15:26:56;31.50;89.30
19166;DHT22;9715;48.816;10.520;2022-07-23T15:29:24;31.60;87.30
19166;DHT22;9715;48.816;10.520;2022-07-23T15:31:52;31.70;85.90
19166;DHT22;9715;48.816;10.520;2022-07-23T15:34:24;31.50;86.10
19166;DHT22;9715;48.816;10.520;2022-07-23T15:36:53;31.50;87.00
19166;DHT22;9715;48.816;10.520;2022-07-23T15:39:22;31.20;86.00
19166;DHT22;9715;48.816;10.520;2022-07-23T15:41:51;30.80;85.70
19166;DHT22;9715;48.816;10.520;2022-07-23T15:44:19;30.40;87.10
19166;DHT22;9715;48.816;10.520;2022-07-23T15:46:55;30.20;88.30
19166;DHT22;9715;48.816;10.520;2022-07-23T15:49:25;29.90;88.90